createdAt,value
2022-09-06T08:02:35.784Z,2.00
2022-09-06T08:11:38.117Z,1.77
2022-09-06T08:14:25.169Z,1.40
2022-09-06T08:17:12.564Z,1.58
2022-09-06T08:20:02.897Z,1.30
2022-09-06T08:22:50.221Z,1.40
2022-09-06T08:25:37.316Z,1.60
2022-09-06T08:28:28.130Z,1.58
2022-09-06T08:31:16.974Z,1.38
2022-09-06T08:34:04.272Z,2.25
2022-09-06T08:36:52.828Z,1.60
2022-09-06T08:39:39.782Z,1.53
2022-09-06T08:42:26.822Z,1.67
2022-09-06T08:45:16.420Z,1.98
2022-09-06T08:48:04.297Z,1.83
2022-09-06T08:50:57.338Z,1.50
2022-09-06T08:53:47.478Z,1.52
2022-09-06T08:56:37.060Z,1.92
2022-09-06T08:59:24.337Z,1.50
2022-09-06T09:02:16.694Z,1.48
2022-09-06T09:05:06.504Z,1.52
2022-09-06T09:08:01.996Z,1.53
2022-09-06T09:10:52.143Z,1.90
2022-09-06T09:13:41.807Z,1.37
2022-09-06T09:16:29.432Z,1.83
2022-09-06T09:19:16.707Z,1.70
2022-09-06T09:22:04.109Z,2.35
2022-09-06T09:24:52.781Z,2.10
2022-09-06T09:27:41.543Z,2.05
2022-09-06T09:33:38.869Z,1.80
2022-09-06T09:36:25.509Z,2.40
2022-09-06T09:39:12.863Z,2.07
2022-09-06T09:42:00.234Z,2.13
2022-09-06T09:44:48.903Z,2.40
2022-09-06T09:47:36.145Z,1.98
2022-09-06T09:50:25.029Z,1.60
2022-09-06T09:53:16.016Z,1.70
2022-09-06T09:56:03.517Z,1.48
2022-09-06T09:58:50.539Z,2.20
2022-09-06T10:01:40.415Z,1.98
2022-09-06T10:04:46.691Z,1.75
2022-09-06T10:07:34.655Z,1.50
2022-09-06T10:10:23.291Z,1.73
2022-09-06T10:13:14.583Z,1.70
2022-09-06T10:16:03.339Z,1.75
2022-09-06T10:18:54.529Z,1.73
2022-09-06T10:21:41.812Z,1.85
2022-09-06T10:24:32.628Z,1.53
2022-09-06T10:27:28.101Z,1.40
2022-09-06T10:30:15.776Z,1.70
2022-09-06T10:33:08.612Z,1.30
2022-09-06T10:35:58.171Z,1.42
2022-09-06T10:38:50.442Z,1.60
2022-09-06T10:41:44.795Z,1.33
2022-09-06T10:44:41.050Z,1.80
2022-09-06T10:47:31.540Z,1.48
2022-09-06T10:50:18.946Z,1.63
2022-09-06T10:53:13.724Z,1.58
2022-09-06T10:56:05.161Z,1.40
2022-09-06T11:02:04.903Z,1.30
2022-09-06T11:11:15.706Z,1.40
2022-09-06T11:14:11.313Z,1.30
2022-09-06T11:17:01.489Z,1.70
2022-09-06T11:19:52.811Z,1.23
2022-09-06T11:23:00.837Z,1.40
2022-09-06T11:26:08.783Z,1.20
2022-09-06T11:28:59.007Z,1.23
2022-09-06T11:35:02.036Z,1.30
2022-09-06T11:37:50.746Z,1.85
2022-09-06T11:40:38.917Z,1.27
2022-09-06T11:43:46.555Z,2.22
2022-09-06T11:46:52.613Z,1.25
2022-09-06T11:49:44.044Z,1.27
2022-09-06T11:52:59.357Z,1.63
2022-09-06T11:55:46.980Z,1.73
2022-09-06T11:58:35.778Z,1.40
2022-09-06T12:01:36.913Z,1.50
2022-09-06T12:04:24.476Z,1.42
2022-09-06T12:07:13.730Z,1.30
2022-09-06T12:10:02.803Z,1.37
2022-09-06T12:12:52.856Z,1.08
2022-09-06T12:15:46.305Z,1.10
2022-09-06T12:18:54.675Z,1.13
2022-09-06T12:21:52.310Z,1.58
2022-09-06T12:25:08.457Z,1.40
2022-09-06T12:27:59.448Z,1.20
2022-09-06T12:30:48.096Z,1.27
2022-09-06T12:33:39.434Z,1.00
2022-09-06T12:36:29.653Z,1.23
2022-09-06T12:39:17.477Z,1.35
2022-09-06T12:42:06.952Z,1.27
2022-09-06T12:44:56.254Z,1.30
2022-09-06T12:47:43.828Z,1.10
2022-09-06T12:50:31.551Z,1.30
2022-09-06T12:53:23.614Z,1.23
2022-09-06T12:56:12.659Z,1.47
2022-09-06T12:59:16.924Z,1.42
2022-09-06T13:02:06.658Z,1.20
2022-09-06T13:04:54.856Z,1.10
2022-09-06T13:07:43.046Z,1.27
2022-09-06T13:10:30.821Z,1.38
2022-09-06T13:13:21.474Z,1.20
2022-09-06T13:16:10.104Z,1.40
2022-09-06T13:19:12.550Z,1.35
2022-09-06T13:22:00.292Z,1.17
2022-09-06T13:24:47.849Z,1.00
2022-09-06T13:27:36.634Z,0.95
2022-09-06T13:30:35.951Z,1.33
2022-09-06T13:33:26.435Z,1.20
2022-09-06T13:36:22.595Z,0.95
2022-09-06T13:39:12.374Z,1.00
2022-09-06T13:42:02.267Z,1.30
2022-09-06T13:44:49.343Z,1.40
2022-09-06T13:47:37.296Z,1.20
2022-09-06T13:50:27.889Z,0.93
2022-09-06T13:53:20.576Z,1.15
2022-09-06T13:56:10.856Z,1.00
2022-09-06T13:58:57.818Z,1.45
2022-09-06T14:01:46.026Z,0.70
2022-09-06T14:04:32.976Z,0.90
2022-09-06T14:07:24.825Z,0.90
2022-09-06T14:10:12.768Z,1.00
2022-09-06T14:12:59.573Z,0.90
2022-09-06T14:15:47.149Z,0.98
2022-09-06T14:18:34.331Z,0.82
2022-09-06T14:21:21.436Z,1.10
2022-09-06T14:24:10.045Z,1.10
2022-09-06T14:26:57.030Z,0.88
2022-09-06T14:29:45.575Z,0.70
2022-09-06T14:32:32.777Z,0.70
2022-09-06T14:35:19.828Z,0.80
2022-09-06T14:38:06.984Z,0.80
2022-09-06T14:40:55.896Z,0.98
2022-09-06T14:43:43.948Z,1.20
2022-09-06T14:46:31.237Z,1.00
2022-09-06T14:49:18.522Z,0.80
2022-09-06T14:52:05.905Z,1.00
2022-09-06T14:54:53.176Z,0.88
2022-09-06T14:57:41.995Z,0.70
2022-09-06T15:00:29.350Z,1.10
2022-09-06T15:03:19.347Z,1.10
2022-09-06T15:06:06.711Z,0.70
2022-09-06T15:08:59.145Z,1.08
2022-09-06T15:11:48.067Z,0.85
2022-09-06T15:14:37.486Z,0.75
2022-09-06T15:17:25.483Z,0.65
2022-09-06T15:20:13.429Z,1.00
2022-09-06T15:23:24.293Z,0.90
2022-09-06T15:26:08.799Z,1.00
2022-09-06T15:28:56.043Z,1.15
2022-09-06T15:31:50.137Z,1.00
2022-09-06T15:34:37.420Z,1.05
2022-09-06T15:37:24.777Z,1.15
2022-09-06T15:40:14.245Z,1.40
2022-09-06T15:43:01.660Z,1.20
2022-09-06T15:45:50.009Z,1.08
2022-09-06T15:48:43.195Z,0.90
2022-09-06T15:51:30.632Z,0.90
2022-09-06T15:54:18.463Z,1.15
2022-09-06T15:57:05.931Z,0.80
2022-09-06T15:59:53.253Z,1.17
2022-09-06T16:02:40.520Z,0.95
2022-09-06T16:08:36.407Z,1.00
2022-09-06T16:11:23.680Z,1.00
2022-09-06T16:14:12.014Z,0.90
2022-09-06T16:16:59.337Z,0.98
2022-09-06T16:19:46.185Z,1.35
2022-09-06T16:22:34.647Z,1.00
2022-09-06T16:25:21.947Z,0.70
2022-09-06T16:28:08.939Z,1.10
2022-09-06T16:30:56.837Z,1.30
2022-09-06T16:33:45.573Z,1.10
2022-09-06T16:36:32.412Z,1.03
2022-09-06T16:39:21.034Z,0.85
2022-09-06T16:42:10.603Z,0.90
2022-09-06T16:44:58.427Z,1.10
2022-09-06T16:47:46.504Z,1.00
2022-09-06T16:50:33.750Z,1.00
2022-09-06T16:53:22.218Z,0.93
2022-09-06T16:56:14.585Z,0.97
2022-09-06T16:59:03.512Z,0.90
2022-09-06T17:01:51.508Z,0.70
2022-09-06T17:04:38.835Z,1.20
2022-09-06T17:07:25.838Z,0.77
2022-09-06T17:10:13.135Z,0.80
2022-09-06T17:13:01.772Z,0.82
2022-09-06T17:16:26.607Z,0.85
2022-09-06T17:19:13.926Z,0.65
2022-09-06T17:22:01.027Z,0.73
2022-09-06T17:24:48.342Z,0.77
2022-09-06T17:27:35.593Z,0.88
2022-09-06T17:30:23.970Z,0.70
2022-09-06T17:33:11.115Z,1.13
2022-09-06T17:36:06.933Z,0.77
2022-09-06T17:38:54.616Z,1.35
2022-09-06T17:41:43.125Z,1.07
2022-09-06T17:44:30.666Z,0.70
2022-09-06T17:47:20.814Z,0.68
2022-09-06T17:50:08.097Z,0.60
2022-09-06T17:52:55.351Z,1.00
2022-09-06T17:55:44.295Z,0.93
2022-09-06T17:58:31.532Z,1.35
2022-09-06T18:01:18.800Z,0.77
2022-09-06T18:04:08.180Z,0.90
2022-09-06T18:06:55.368Z,1.43
2022-09-06T18:09:45.395Z,0.68
2022-09-06T18:12:32.833Z,0.60
2022-09-06T18:15:20.508Z,0.65
2022-09-06T18:18:07.910Z,0.52
2022-09-06T18:20:56.542Z,0.65
2022-09-06T18:23:44.142Z,0.88
2022-09-06T18:26:37.369Z,0.52
2022-09-06T18:29:24.620Z,0.65
2022-09-06T18:32:13.492Z,0.68
2022-09-06T18:35:00.411Z,1.10
2022-09-06T18:37:48.829Z,0.55
2022-09-06T18:40:36.219Z,0.70
2022-09-06T18:43:25.418Z,0.60
2022-09-06T18:46:13.590Z,0.80
2022-09-06T18:49:00.690Z,0.90
2022-09-06T18:51:47.947Z,0.60
2022-09-06T18:54:36.716Z,0.70
2022-09-06T18:57:23.777Z,0.63
2022-09-06T19:00:12.624Z,0.98
2022-09-06T19:02:59.767Z,0.50
2022-09-06T19:05:46.815Z,0.68
2022-09-06T19:08:33.700Z,0.85
2022-09-06T19:11:22.433Z,0.70
2022-09-06T19:14:09.836Z,0.60
2022-09-06T19:16:57.162Z,0.83
2022-09-06T19:19:44.425Z,0.75
2022-09-06T19:22:32.060Z,0.77
2022-09-06T19:25:19.488Z,0.73
2022-09-06T19:28:07.572Z,0.65
2022-09-06T19:30:54.911Z,0.80
2022-09-06T19:33:42.568Z,0.75
2022-09-06T19:36:30.269Z,0.75
2022-09-06T19:39:18.898Z,0.95
2022-09-06T19:42:06.332Z,0.60
2022-09-06T19:44:55.140Z,0.90
2022-09-06T19:47:41.995Z,0.80
2022-09-06T19:50:29.731Z,1.00
2022-09-06T19:53:16.950Z,0.73
2022-09-06T19:56:10.395Z,1.20
2022-09-06T19:58:58.172Z,0.75
2022-09-06T20:01:47.690Z,1.17
2022-09-06T20:04:34.803Z,0.82
2022-09-06T20:07:21.647Z,0.73
2022-09-06T20:10:08.942Z,0.60
2022-09-06T20:12:56.250Z,1.08
2022-09-06T20:15:43.449Z,0.88
2022-09-06T20:18:32.178Z,0.80
2022-09-06T20:21:20.878Z,0.70
2022-09-06T20:24:10.114Z,0.80
2022-09-06T20:26:57.260Z,0.70
2022-09-06T20:29:44.646Z,0.70
2022-09-06T20:32:34.825Z,0.80
2022-09-06T20:35:25.612Z,1.08
2022-09-06T20:38:12.686Z,1.02
2022-09-06T20:41:01.591Z,0.80
2022-09-06T20:43:52.677Z,0.70
2022-09-06T20:46:40.290Z,0.80
2022-09-06T20:49:27.308Z,0.80
2022-09-06T20:52:18.721Z,0.60
2022-09-06T20:55:06.621Z,0.63
2022-09-06T20:57:53.616Z,0.52
2022-09-06T21:00:41.467Z,0.70
2022-09-06T21:03:28.972Z,0.77
2022-09-06T21:06:16.158Z,0.98
2022-09-06T21:09:05.524Z,0.80
2022-09-06T21:11:54.213Z,1.38
2022-09-06T21:14:41.513Z,0.85
2022-09-06T21:17:30.525Z,1.05
2022-09-06T21:20:17.713Z,0.68
2022-09-06T21:23:05.223Z,1.08
2022-09-06T21:25:56.774Z,0.93
2022-09-06T21:28:44.762Z,1.10
2022-09-06T21:31:32.735Z,1.00
2022-09-06T21:34:19.630Z,1.10
2022-09-06T21:37:08.190Z,0.70
2022-09-06T21:39:55.370Z,0.60
2022-09-06T21:42:43.673Z,1.08
2022-09-06T21:45:30.785Z,0.75
2022-09-06T21:48:18.709Z,0.73
2022-09-06T21:51:05.548Z,0.68
2022-09-06T21:53:53.094Z,0.43
2022-09-06T21:56:40.446Z,0.47
2022-09-06T21:59:28.973Z,0.50
2022-09-06T22:02:16.308Z,0.50
2022-09-06T22:05:06.459Z,0.75
2022-09-06T22:07:53.776Z,0.75
2022-09-06T22:10:41.164Z,0.77
2022-09-06T22:13:28.834Z,0.95
2022-09-06T22:16:18.191Z,0.95
2022-09-06T22:19:05.736Z,0.98
2022-09-06T22:21:54.439Z,0.60
2022-09-06T22:24:41.750Z,1.00
2022-09-06T22:27:28.951Z,1.10
2022-09-06T22:30:15.848Z,1.08
2022-09-06T22:33:04.589Z,1.38
2022-09-06T22:35:51.622Z,1.00
2022-09-06T22:38:40.732Z,1.23
2022-09-06T22:41:28.512Z,0.95
2022-09-06T22:44:16.047Z,1.20
2022-09-06T22:47:03.614Z,1.35
2022-09-06T22:49:51.775Z,1.40
2022-09-06T22:52:38.895Z,1.08
2022-09-06T22:55:25.939Z,1.10
2022-09-06T22:58:12.882Z,1.40
2022-09-06T23:01:06.712Z,1.50
2022-09-06T23:03:53.402Z,1.10
2022-09-06T23:06:41.828Z,1.35
2022-09-06T23:09:29.174Z,1.15
2022-09-06T23:12:16.500Z,1.25
2022-09-06T23:15:03.639Z,1.60
2022-09-06T23:17:50.873Z,1.58
2022-09-06T23:20:37.929Z,1.20
2022-09-06T23:23:26.479Z,1.13
2022-09-06T23:26:15.090Z,2.22
2022-09-06T23:29:02.323Z,1.50
2022-09-06T23:31:49.214Z,1.40
2022-09-06T23:34:36.814Z,1.60
2022-09-06T23:37:23.943Z,1.33
2022-09-06T23:40:14.575Z,1.30
2022-09-06T23:43:01.479Z,1.27
2022-09-06T23:45:48.487Z,1.20
2022-09-06T23:48:35.627Z,1.45
2022-09-06T23:51:22.696Z,2.70
2022-09-06T23:54:09.838Z,1.30
2022-09-06T23:56:58.351Z,1.00
2022-09-06T23:59:45.374Z,1.15
